Time;durP1;ratioP1;P1;durP2;ratioP2;P2;SDS_P1;SDS_P2;PMS_P1;PMS_P2;Temp;Humidity;BMP_temperature;BMP_pressure;BME280_temperature;BME280_humidity;BME280_pressure;Samples;Min_cycle;Max_cycle;Signal;HPM_P1;HPM_P2
2022/10/23 00:01:34;;;;;;;7.63;3.53;;;17.30;93.00;;;17.64;58.59;98744.66;4994618;28;124052;-74
2022/10/23 00:04:14;;;;;;;4.87;3.40;;;17.20;93.00;;;17.61;58.70;98735.00;4987828;28;114323;-74
2022/10/23 00:06:41;;;;;;;5.77;3.73;;;17.20;93.10;;;17.58;58.72;98738.53;4974548;28;115001;-76
2022/10/23 00:09:17;;;;;;;8.00;4.10;;;17.20;93.10;;;17.56;58.77;98724.09;4987132;28;123988;-75
2022/10/23 00:11:46;;;;;;;7.23;4.07;;;17.20;93.20;;;17.54;58.72;98722.84;4982632;28;123172;-74
2022/10/23 00:14:16;;;;;;;7.03;3.50;;;17.10;93.20;;;17.51;58.93;98724.38;4990212;28;114760;-74
2022/10/23 00:16:42;;;;;;;15.07;3.43;;;17.10;93.20;;;17.50;59.01;98721.94;4984219;28;113920;-74
2022/10/23 00:19:09;;;;;;;7.73;3.20;;;17.10;93.30;;;17.48;59.14;98716.72;4991261;28;124373;-76
2022/10/23 00:21:36;;;;;;;6.47;3.80;;;17.10;93.30;;;17.46;59.05;98716.25;4997958;28;126249;-73
2022/10/23 00:24:07;;;;;;;3.53;2.27;;;17.10;93.30;;;17.44;59.05;98707.44;4957693;28;113313;-76
2022/10/23 00:26:34;;;;;;;5.90;3.13;;;17.00;93.30;;;17.42;59.12;98718.97;4949887;28;114514;-75
2022/10/23 00:29:00;;;;;;;4.07;2.87;;;17.00;93.40;;;17.39;59.34;98714.09;4953517;28;124029;-74
2022/10/23 00:31:27;;;;;;;6.60;2.90;;;17.00;93.40;;;17.38;59.31;98731.22;4960980;28;123462;-74
2022/10/23 00:33:53;;;;;;;6.77;2.67;;;17.00;93.50;;;17.37;59.26;98737.97;4968536;28;114209;-74
2022/10/23 00:36:21;;;;;;;6.20;3.70;;;17.00;93.50;;;17.34;59.28;98731.13;4954707;28;113071;-74
2022/10/23 00:38:49;;;;;;;4.50;2.93;;;16.90;93.50;;;17.32;59.63;98735.44;4967639;28;123607;-75
2022/10/23 00:41:23;;;;;;;4.50;2.70;;;16.90;93.60;;;17.31;59.35;98737.44;4960795;28;124528;-74
2022/10/23 00:44:16;;;;;;;5.07;2.80;;;16.90;93.60;;;17.28;59.41;98731.78;4956754;28;114640;-74
2022/10/23 00:46:44;;;;;;;3.37;2.60;;;16.90;93.60;;;17.27;59.55;98724.53;4964031;28;113709;-76
2022/10/23 00:49:12;;;;;;;5.53;2.70;;;16.80;93.60;;;17.25;59.46;98721.28;4964879;28;124256;-74
2022/10/23 00:51:44;;;;;;;5.03;3.03;;;16.80;93.60;;;17.23;59.57;98718.88;4969291;28;122978;-75
2022/10/23 00:54:12;;;;;;;6.40;2.77;;;16.80;93.70;;;17.20;59.51;98717.63;4964806;28;114088;-75
2022/10/23 00:56:43;;;;;;;3.70;2.70;;;16.80;93.70;;;17.18;59.71;98711.56;4963516;28;114173;-74
2022/10/23 00:59:10;;;;;;;5.90;3.07;;;16.80;93.80;;;17.16;59.66;98718.69;4965283;28;123921;-75
2022/10/23 01:01:36;;;;;;;3.80;2.90;;;16.70;93.70;;;17.14;60.01;98715.44;4964549;28;123759;-72
2022/10/23 01:04:05;;;;;;;6.70;3.20;;;16.70;93.80;;;17.12;59.69;98713.00;4969321;28;114454;-76
2022/10/23 01:07:06;;;;;;;5.67;2.90;;;16.70;93.80;;;17.08;59.80;98712.09;4968233;28;114110;-74
2022/10/23 01:09:57;;;;;;;5.87;2.80;;;16.70;93.80;;;17.04;59.96;98711.19;4969194;28;123410;-74
2022/10/23 01:12:26;;;;;;;4.53;2.83;;;16.70;93.90;;;17.03;59.96;98722.72;4981606;28;124198;-75
2022/10/23 01:15:12;;;;;;;4.80;2.60;;;16.60;93.90;;;17.01;60.06;98714.72;4952873;28;114183;-77
2022/10/23 01:17:47;;;;;;;4.00;2.50;;;16.60;93.90;;;16.99;60.06;98714.25;4961339;28;112766;-75
2022/10/23 01:20:39;;;;;;;4.97;2.87;;;16.60;94.30;;;16.96;59.94;98709.38;4962336;28;123873;-75
2022/10/23 01:23:30;;;;;;;4.47;2.70;;;16.50;94.00;;;16.95;60.12;98702.16;4952291;28;123935;-75
2022/10/23 01:26:33;;;;;;;6.10;3.40;;;16.50;94.10;;;16.93;60.07;98698.94;4959566;28;113741;-75
2022/10/23 01:29:37;;;;;;;5.90;2.70;;;16.50;94.10;;;16.89;60.15;98700.81;4963177;28;113784;-75
2022/10/23 01:32:13;;;;;;;4.23;2.30;;;16.50;94.10;;;16.86;60.57;98695.94;4963405;28;124241;-75
2022/10/23 01:34:55;;;;;;;4.83;3.00;;;16.50;94.20;;;16.86;60.27;98688.38;4962373;28;124013;-74
2022/10/23 01:37:35;;;;;;;2.80;2.20;;;16.40;94.20;;;16.84;60.33;98684.31;4960024;28;114589;-75
2022/10/23 01:40:05;;;;;;;5.87;3.10;;;16.40;94.20;;;16.82;60.48;98686.66;4965081;28;113604;-74
2022/10/23 01:42:48;;;;;;;6.90;3.00;;;16.40;94.20;;;16.80;60.37;98681.44;4965709;28;123334;-76
2022/10/23 01:45:45;;;;;;;4.03;2.80;;;16.40;94.30;;;16.78;60.37;98679.00;4971171;28;123077;-76
2022/10/23 01:48:17;;;;;;;4.30;2.20;;;16.40;94.30;;;16.75;60.50;98688.06;4949099;28;115047;-74
2022/10/23 01:50:44;;;;;;;2.60;2.10;;;16.30;94.20;;;16.74;60.67;98674.47;4963705;28;114941;-75
2022/10/23 01:53:11;;;;;;;7.83;2.80;;;16.30;94.30;;;16.73;60.60;98684.81;4952804;28;124697;-74
2022/10/23 01:55:39;;;;;;;4.30;2.80;;;16.30;94.30;;;16.71;60.66;98681.59;4955603;28;124158;-75
2022/10/23 01:58:07;;;;;;;5.50;2.97;;;16.30;94.30;;;16.67;60.79;98677.88;4957012;28;114552;-75
2022/10/23 02:00:38;;;;;;;4.90;2.20;;;16.30;94.60;;;16.66;60.79;98673.47;4971959;28;113940;-75
2022/10/23 02:03:06;;;;;;;3.67;2.50;;;16.30;94.40;;;16.63;60.77;98679.75;4964385;28;124342;-75
2022/10/23 02:05:33;;;;;;;4.50;2.50;;;16.20;94.40;;;16.61;60.73;98670.94;4954867;28;124313;-78
2022/10/23 02:08:03;;;;;;;6.70;3.47;;;16.20;94.40;;;16.59;60.79;98664.88;4964287;28;113818;-78
2022/10/23 02:11:04;;;;;;;3.50;2.40;;;16.20;94.50;;;16.54;60.85;98671.53;4971543;28;113928;-75
2022/10/23 02:14:04;;;;;;;11.20;3.17;;;16.10;94.50;;;16.47;60.95;98667.72;4956884;28;124406;-77
2022/10/23 02:16:52;;;;;;;4.13;2.37;;;16.10;94.50;;;16.43;61.25;98664.84;4952299;28;123085;-74
2022/10/23 02:19:28;;;;;;;7.67;2.73;;;16.00;94.50;;;16.41;61.05;98660.78;4937442;28;113682;-74
2022/10/23 02:22:03;;;;;;;5.17;3.23;;;16.00;94.60;;;16.41;61.18;98655.19;4956724;28;114014;-74
2022/10/23 02:24:45;;;;;;;5.90;3.20;;;15.90;94.60;;;16.38;61.41;98658.69;4958081;28;123750;-74
2022/10/23 02:27:17;;;;;;;4.90;3.37;;;15.90;94.70;;;16.35;61.29;98666.59;4952532;28;123857;-76
2022/10/23 02:30:10;;;;;;;6.33;3.50;;;15.90;94.80;;;16.32;61.28;98652.56;4963933;28;114055;-76
2022/10/23 02:32:43;;;;;;;4.57;2.70;;;15.90;94.80;;;16.34;61.41;98655.81;4955653;28;114680;-76
2022/10/23 02:35:10;;;;;;;5.33;3.80;;;15.90;94.80;;;16.33;61.56;98646.66;4965113;28;123818;-75
2022/10/23 02:37:36;;;;;;;5.63;2.93;;;15.90;94.80;;;16.35;61.35;98646.28;4948114;28;123777;-75
2022/10/23 02:40:04;;;;;;;3.97;3.13;;;15.90;94.80;;;16.34;61.39;98639.09;4963307;28;115872;-74
2022/10/23 02:42:58;;;;;;;4.73;2.90;;;15.90;94.80;;;16.32;61.41;98647.81;4969496;28;113968;-76
2022/10/23 02:45:49;;;;;;;5.80;2.90;;;15.90;94.80;;;16.31;61.50;98637.81;4952352;28;123610;-76
2022/10/23 02:48:25;;;;;;;4.97;2.90;;;15.90;94.80;;;16.30;61.29;98630.59;4960679;28;123888;-75
2022/10/23 02:50:57;;;;;;;8.43;2.97;;;15.90;94.80;;;16.29;61.35;98625.41;4959129;28;114365;-77
2022/10/23 02:54:25;;;;;;;5.90;3.33;;;15.90;94.80;;;16.24;61.67;98617.28;4967400;28;114363;-76
2022/10/23 02:57:21;;;;;;;5.67;3.53;;;15.80;94.80;;;16.20;61.39;98611.63;4962433;28;124232;-74
2022/10/23 03:00:04;;;;;;;5.90;3.80;;;15.80;94.90;;;16.20;61.45;98620.00;4935486;28;123783;-77
2022/10/23 03:02:55;;;;;;;6.13;3.30;;;15.80;94.90;;;16.19;61.61;98609.97;4965358;28;114221;-74
2022/10/23 03:05:36;;;;;;;3.70;2.90;;;15.80;94.90;;;16.17;61.81;98622.66;4951116;28;113203;-74
2022/10/23 03:08:05;;;;;;;3.40;2.70;;;15.70;94.90;;;16.15;61.67;98623.03;4966160;28;124123;-74
2022/10/23 03:10:31;;;;;;;4.70;3.00;;;15.60;94.90;;;16.15;61.67;98614.66;4962359;28;124246;-75
2022/10/23 03:12:58;;;;;;;5.53;3.03;;;15.70;95.00;;;16.12;61.88;98607.00;4955347;28;114160;-75
2022/10/23 03:15:25;;;;;;;2.90;2.53;;;15.70;95.00;;;16.10;61.59;98612.13;4962891;28;114384;-74
2022/10/23 03:17:51;;;;;;;5.30;3.10;;;15.60;95.00;;;16.10;61.89;98618.50;4968798;28;124015;-75
2022/10/23 03:20:18;;;;;;;8.03;3.33;;;15.60;95.10;;;16.08;61.93;98615.25;4956809;28;123748;-75
2022/10/23 03:22:44;;;;;;;5.07;2.83;;;15.60;95.10;;;16.08;61.73;98620.81;4967604;28;114219;-74
2022/10/23 03:25:11;;;;;;;6.30;3.03;;;15.60;95.10;;;16.08;61.88;98615.25;4960023;28;114134;-74
2022/10/23 03:27:37;;;;;;;8.37;3.30;;;15.60;95.10;;;16.07;62.00;98618.41;4951302;28;123396;-74
2022/10/23 03:30:05;;;;;;;5.17;2.33;;;15.60;95.10;;;16.03;62.07;98614.69;4953014;28;123752;-74
2022/10/23 03:32:32;;;;;;;6.37;3.40;;;15.60;95.20;;;16.02;61.95;98608.31;4959617;28;114894;-75
2022/10/23 03:34:59;;;;;;;5.03;2.90;;;15.60;95.20;;;16.02;61.75;98610.28;4969481;28;114924;-74
2022/10/23 03:37:25;;;;;;;9.33;2.90;;;15.60;95.20;;;16.03;61.85;98609.13;4966251;28;124238;-74
2022/10/23 03:39:52;;;;;;;4.43;2.83;;;15.60;95.20;;;16.04;62.03;98602.38;4962770;28;124056;-74
2022/10/23 03:42:18;;;;;;;4.47;2.73;;;15.60;95.20;;;16.04;61.88;98602.38;4963221;28;114973;-75
2022/10/23 03:44:45;;;;;;;9.53;3.07;;;15.60;95.20;;;16.03;62.06;98604.34;4967788;28;114178;-74
2022/10/23 03:47:11;;;;;;;3.50;2.57;;;15.60;95.20;;;16.01;61.95;98611.44;4956287;28;124076;-75
2022/10/23 03:49:38;;;;;;;5.83;2.63;;;15.70;95.30;;;15.98;62.18;98604.59;4961933;28;123972;-78
2022/10/23 03:52:06;;;;;;;5.80;2.80;;;15.50;95.20;;;15.97;62.18;98602.97;4952880;28;114287;-74
2022/10/23 03:54:33;;;;;;;4.10;3.10;;;15.50;95.20;;;15.97;62.06;98591.03;4968449;28;113177;-74
2022/10/23 03:57:00;;;;;;;5.17;2.80;;;15.50;95.20;;;15.96;62.11;98589.38;4951532;28;124219;-74
2022/10/23 03:59:27;;;;;;;5.63;2.80;;;15.50;95.30;;;15.93;61.95;98592.88;4954577;28;123626;-75
2022/10/23 04:01:53;;;;;;;4.13;3.17;;;15.40;95.20;;;15.93;62.22;98595.66;4966731;28;114568;-75
2022/10/23 04:04:23;;;;;;;3.93;2.30;;;15.50;95.30;;;15.93;62.50;98596.47;4956337;28;114186;-74
2022/10/23 04:06:50;;;;;;;3.23;2.30;;;15.50;95.40;;;15.94;62.07;98600.09;4966260;28;123985;-74
2022/10/23 04:09:16;;;;;;;3.30;2.30;;;15.50;95.40;;;15.94;62.28;98603.69;4966504;28;124512;-75
2022/10/23 04:11:43;;;;;;;4.50;2.80;;;15.50;95.40;;;15.94;62.46;98602.88;4963440;28;114212;-75
2022/10/23 04:14:12;;;;;;;6.33;2.90;;;15.50;95.40;;;15.95;62.29;98604.50;4962350;28;113773;-74
2022/10/23 04:16:39;;;;;;;3.90;3.00;;;15.50;95.40;;;15.96;62.27;98608.91;4959568;28;123663;-74
2022/10/23 04:19:05;;;;;;;7.57;3.13;;;15.50;95.50;;;15.95;62.37;98604.50;4947530;28;124116;-74
2022/10/23 04:21:32;;;;;;;6.30;2.63;;;15.50;95.50;;;15.94;62.46;98606.47;4961327;28;115180;-75
2022/10/23 04:23:59;;;;;;;8.63;3.37;;;15.50;95.50;;;15.94;62.54;98603.69;4959437;28;114687;-75
2022/10/23 04:26:25;;;;;;;3.87;2.63;;;15.50;95.50;;;15.95;62.33;98610.06;4956749;28;123911;-74
2022/10/23 04:28:52;;;;;;;12.50;4.97;;;15.50;95.50;;;15.94;62.45;98603.69;4958177;28;125350;-75
2022/10/23 04:31:18;;;;;;;11.90;3.43;;;15.50;95.50;;;15.94;62.52;98606.47;4966318;28;114327;-75
2022/10/23 04:33:45;;;;;;;5.30;2.70;;;15.50;95.60;;;15.94;62.51;98611.25;4965700;28;114142;-75
2022/10/23 04:36:11;;;;;;;3.93;2.40;;;15.50;95.60;;;15.94;62.78;98614.84;4942477;28;123071;-75
2022/10/23 04:38:38;;;;;;;5.30;3.10;;;15.50;95.60;;;15.94;62.49;98614.84;4958340;28;123754;-74
2022/10/23 04:41:04;;;;;;;4.03;2.93;;;15.50;95.60;;;15.97;62.73;98607.75;4948687;28;114633;-75
2022/10/23 04:43:31;;;;;;;6.80;3.27;;;15.50;95.60;;;15.97;62.50;98596.59;4966506;28;113994;-77
2022/10/23 04:45:57;;;;;;;5.30;2.60;;;15.50;95.60;;;15.97;62.50;98593.81;4962896;28;124585;-76
2022/10/23 04:48:24;;;;;;;3.70;2.70;;;15.50;95.70;;;15.96;62.53;98600.53;4959695;28;123831;-73
2022/10/23 04:50:56;;;;;;;4.70;2.57;;;15.50;95.70;;;15.96;62.55;98606.09;4967467;28;113281;-74
2022/10/23 04:53:23;;;;;;;3.80;2.80;;;15.50;95.70;;;15.94;62.66;98591.75;4964681;28;113934;-75
2022/10/23 04:55:52;;;;;;;3.93;2.50;;;15.40;95.70;;;15.92;62.47;98594.88;4962639;28;125086;-75
2022/10/23 04:58:20;;;;;;;4.07;2.50;;;15.50;95.70;;;15.92;62.78;98605.22;4965711;28;123732;-74
2022/10/23 05:00:48;;;;;;;3.20;2.43;;;15.40;95.70;;;15.90;62.62;98614.75;4962732;28;114320;-75
2022/10/23 05:03:16;;;;;;;3.33;2.40;;;15.40;95.80;;;15.92;62.44;98610.78;4963885;28;114035;-73
2022/10/23 05:05:42;;;;;;;7.53;2.50;;;15.40;95.80;;;15.90;62.78;98603.59;4960460;28;124536;-74
2022/10/23 05:08:10;;;;;;;3.23;2.17;;;15.40;95.80;;;15.90;62.79;98603.59;4960927;28;123844;-74
2022/10/23 05:10:37;;;;;;;6.60;3.00;;;15.40;95.80;;;15.87;62.80;98606.25;4955822;28;115638;-74
2022/10/23 05:13:04;;;;;;;3.37;2.60;;;15.50;95.90;;;15.82;62.93;98596.16;4953224;28;115001;-75
2022/10/23 05:15:30;;;;;;;4.33;2.47;;;15.30;95.90;;;15.81;62.89;98594.56;4967933;28;124757;-75
2022/10/23 05:18:07;;;;;;;4.40;2.57;;;15.30;95.90;;;15.82;62.89;98595.34;4952942;28;123981;-75
2022/10/23 05:20:36;;;;;;;4.20;2.50;;;15.30;95.90;;;15.79;62.94;98590.50;4949588;28;114198;-74
2022/10/23 05:23:08;;;;;;;3.73;2.87;;;15.30;95.90;;;15.78;62.97;98595.25;4960005;28;114054;-74
2022/10/23 05:25:35;;;;;;;5.53;3.00;;;15.30;96.00;;;15.76;63.07;98591.19;4966307;28;123528;-76
2022/10/23 05:28:02;;;;;;;3.53;2.80;;;15.20;96.00;;;15.75;63.16;98579.25;4962830;28;123628;-76
2022/10/23 05:30:29;;;;;;;4.50;2.70;;;15.40;96.10;;;15.77;63.15;98579.72;4950947;28;113930;-76
2022/10/23 05:32:55;;;;;;;6.50;2.70;;;15.30;96.00;;;15.79;63.02;98591.28;4955959;28;113987;-74
2022/10/23 05:35:22;;;;;;;5.37;2.50;;;15.30;96.10;;;15.78;63.29;98591.66;4960993;28;125221;-76
2022/10/23 05:37:50;;;;;;;4.33;2.33;;;15.30;96.10;;;15.78;63.24;98584.13;4946821;28;123842;-75
2022/10/23 05:40:17;;;;;;;4.53;2.77;;;16.20;96.50;;;15.79;63.16;98580.16;4957032;28;114344;-76
2022/10/23 05:42:43;;;;;;;3.50;2.60;;;15.30;96.10;;;15.80;63.10;98581.78;4964529;28;113803;-75
2022/10/23 05:45:10;;;;;;;3.63;2.50;;;16.30;96.50;;;15.80;63.23;98567.88;4953465;28;124616;-74
2022/10/23 05:47:36;;;;;;;4.30;2.43;;;15.30;96.00;;;15.80;63.00;98570.66;4964484;28;123811;-74
2022/10/23 05:50:03;;;;;;;4.57;2.63;;;15.30;96.30;;;15.79;63.10;98565.41;4957635;28;114485;-74
2022/10/23 05:52:30;;;;;;;4.00;2.80;;;15.30;96.10;;;15.79;63.29;98565.41;4952972;28;114706;-76
2022/10/23 05:54:56;;;;;;;8.40;3.07;;;15.30;96.00;;;15.78;63.11;98555.44;4961190;28;124061;-75
2022/10/23 05:57:23;;;;;;;5.87;2.53;;;15.40;96.10;;;15.75;63.12;98556.16;4963558;28;125130;-75
2022/10/23 05:59:49;;;;;;;4.17;2.43;;;15.30;96.10;;;15.73;63.01;98558.47;4964172;28;115183;-76
2022/10/23 06:02:16;;;;;;;4.43;2.67;;;15.30;96.10;;;15.71;63.28;98553.25;4949634;28;113003;-73
2022/10/23 06:04:42;;;;;;;5.20;2.23;;;15.20;96.00;;;15.71;63.23;98544.91;4960721;28;124130;-75
2022/10/23 06:07:09;;;;;;;6.13;2.27;;;15.30;96.10;;;15.71;62.98;98558.81;4961383;28;122852;-75
2022/10/23 06:09:35;;;;;;;3.97;2.43;;;15.20;96.00;;;15.72;63.14;98554.91;4955161;28;114138;-77
2022/10/23 06:12:02;;;;;;;7.90;2.50;;;15.30;96.10;;;15.73;63.18;98558.47;4950170;28;116249;-75
2022/10/23 06:14:29;;;;;;;8.60;2.80;;;15.30;96.10;;;15.73;63.11;98548.16;4958301;28;123819;-73
2022/10/23 06:16:55;;;;;;;3.83;2.10;;;15.30;96.10;;;15.73;62.96;98547.34;4951374;28;123510;-76
2022/10/23 06:19:21;;;;;;;3.20;2.40;;;15.30;96.10;;;15.72;63.01;98546.53;4955569;28;114809;-76
2022/10/23 06:21:48;;;;;;;4.27;3.00;;;15.20;96.00;;;15.72;63.32;98552.09;4952179;28;113919;-76
2022/10/23 06:24:15;;;;;;;7.33;2.70;;;15.20;96.10;;;15.72;63.21;98546.53;4953336;28;123306;-75
2022/10/23 06:26:41;;;;;;;4.73;2.67;;;15.20;96.00;;;15.73;63.10;98548.16;4955841;28;123760;-74
2022/10/23 06:29:08;;;;;;;8.60;2.50;;;15.30;96.10;;;15.71;63.20;98550.47;4957108;28;114100;-74
2022/10/23 06:31:34;;;;;;;5.40;2.97;;;15.20;96.10;;;15.69;62.80;98550.03;4982704;28;113544;-76
2022/10/23 06:34:05;;;;;;;7.60;3.03;;;15.20;96.10;;;15.65;63.36;98558.22;4966140;28;124497;-75
2022/10/23 06:36:31;;;;;;;3.23;2.47;;;15.20;96.10;;;15.63;62.95;98543.84;4955089;28;124346;-75
2022/10/23 06:38:58;;;;;;;4.27;2.43;;;15.20;96.20;;;15.65;63.36;98554.63;4966803;28;114434;-75
2022/10/23 06:41:24;;;;;;;3.47;2.57;;;15.20;96.50;;;15.68;63.24;98542.78;4967304;28;113876;-74
2022/10/23 06:43:51;;;;;;;2.70;2.33;;;15.20;96.20;;;15.68;63.28;98545.56;4963014;28;124206;-74
2022/10/23 06:46:21;;;;;;;4.27;2.53;;;15.20;96.20;;;15.68;63.20;98549.19;4965479;28;123873;-75
2022/10/23 06:48:47;;;;;;;10.90;3.00;;;15.40;96.30;;;15.70;63.24;98540.50;4961947;28;115189;-76
2022/10/23 06:51:16;;;;;;;6.60;2.77;;;15.20;96.20;;;15.73;63.19;98548.16;4964364;28;115103;-77
2022/10/23 06:53:43;;;;;;;3.00;2.20;;;15.20;96.20;;;15.76;63.11;98550.22;4938299;28;123614;-77
2022/10/23 06:56:11;;;;;;;3.50;2.50;;;15.20;96.20;;;15.79;62.99;98538.38;4951106;28;123856;-77
2022/10/23 06:58:39;;;;;;;10.00;2.60;;;15.30;96.20;;;15.80;62.94;98548.38;4951505;28;114206;-74
2022/10/23 07:01:09;;;;;;;4.30;2.67;;;15.30;96.20;;;15.82;63.00;98532.09;4949270;28;114108;-74
2022/10/23 07:03:36;;;;;;;5.30;3.37;;;15.50;96.30;;;15.81;63.04;98538.03;4963079;28;124644;-76
2022/10/23 07:06:08;;;;;;;4.20;2.40;;;15.30;96.20;;;15.81;63.04;98538.84;4953055;28;123066;-75
2022/10/23 07:08:35;;;;;;;3.53;2.77;;;15.30;96.20;;;15.82;63.03;98528.50;4960823;28;113724;-76
2022/10/23 07:11:07;;;;;;;4.60;2.40;;;15.30;96.30;;;15.85;62.91;98547.28;4959339;28;113893;-75
2022/10/23 07:13:35;;;;;;;6.47;2.63;;;15.30;96.30;;;15.85;63.22;98544.50;4946879;28;123209;-75
2022/10/23 07:16:14;;;;;;;3.63;2.13;;;15.30;96.30;;;15.90;63.36;98541.47;4952633;28;124153;-74
2022/10/23 07:18:41;;;;;;;5.03;2.77;;;15.30;96.30;;;15.93;63.32;98532.41;4951142;28;114305;-75
2022/10/23 07:21:08;;;;;;;6.30;2.77;;;15.30;96.30;;;15.97;63.17;98529.72;4953518;28;114083;-75
2022/10/23 07:23:35;;;;;;;6.13;2.57;;;15.40;96.40;;;15.99;63.21;98532.97;4963664;28;124256;-75
2022/10/23 07:26:14;;;;;;;3.80;2.10;;;15.40;96.40;;;16.03;63.35;98545.81;4961065;28;124175;-74
2022/10/23 07:28:42;;;;;;;7.07;3.10;;;15.50;96.50;;;16.05;63.31;98525.97;4970566;28;113606;-76
2022/10/23 07:31:09;;;;;;;5.47;2.67;;;15.50;96.50;;;16.11;63.23;98530.13;4952771;28;113759;-76
2022/10/23 07:33:36;;;;;;;4.53;2.40;;;15.50;96.50;;;16.16;63.00;98527.06;4964798;28;124034;-73
2022/10/23 07:36:05;;;;;;;3.17;2.10;;;15.60;96.50;;;16.22;63.13;98535.97;4964064;28;123588;-73
2022/10/23 07:38:33;;;;;;;6.10;2.30;;;15.60;96.50;;;16.28;63.10;98540.13;4952415;28;115046;-75
2022/10/23 07:41:00;;;;;;;7.90;2.67;;;15.70;96.50;;;16.32;62.99;98539.06;4947219;28;115623;-76
2022/10/23 07:43:26;;;;;;;3.43;2.40;;;15.70;96.50;;;16.37;62.77;98542.78;4949474;28;123947;-75
2022/10/23 07:45:53;;;;;;;6.13;2.80;;;15.70;96.50;;;16.38;62.78;98550.75;4962210;28;123849;-77
2022/10/23 07:48:22;;;;;;;5.40;3.10;;;15.80;96.50;;;16.42;62.67;98550.88;4953257;28;113690;-80
2022/10/23 07:50:50;;;;;;;3.67;2.60;;;15.80;96.50;;;16.45;62.91;98536.22;4968362;28;113124;-75
2022/10/23 07:53:23;;;;;;;7.93;3.13;;;15.80;96.50;;;16.51;62.74;98548.72;4957783;28;124539;-77
2022/10/23 07:55:55;;;;;;;2.90;2.07;;;15.90;96.50;;;16.57;62.87;98552.84;4952424;28;123821;-75
2022/10/23 07:58:24;;;;;;;4.47;3.20;;;15.90;96.40;;;16.64;62.69;98549.47;4960779;28;115863;-76
2022/10/23 08:01:03;;;;;;;3.77;2.63;;;16.00;96.40;;;16.69;61.93;98543.63;4949013;28;114511;-77
2022/10/23 08:03:32;;;;;;;4.73;2.70;;;16.00;96.30;;;16.73;62.30;98539.72;4939759;28;123755;-78
2022/10/23 08:05:59;;;;;;;3.60;3.10;;;16.10;96.30;;;16.77;62.19;98543.47;4949450;28;124218;-78
2022/10/23 08:08:26;;;;;;;4.00;2.57;;;16.10;96.30;;;16.83;62.11;98541.22;4951043;28;114341;-78
2022/10/23 08:10:54;;;;;;;4.27;2.63;;;16.20;96.30;;;16.87;61.92;98541.28;4948789;28;113967;-77
2022/10/23 08:13:21;;;;;;;6.10;2.80;;;16.20;96.30;;;16.90;62.01;98527.44;4951840;28;123915;-77
2022/10/23 08:15:49;;;;;;;12.37;3.00;;;16.20;96.20;;;16.95;61.94;98521.59;4950347;28;123871;-80
2022/10/23 08:18:16;;;;;;;5.43;3.33;;;16.30;96.20;;;17.03;61.99;98519.75;4952800;28;115226;-75
2022/10/23 08:20:46;;;;;;;4.90;2.77;;;16.40;96.20;;;17.08;61.67;98530.66;4957780;28;114556;-78
2022/10/23 08:23:17;;;;;;;6.00;2.37;;;16.40;96.10;;;17.14;61.55;98529.22;4949143;28;124317;-76
2022/10/23 08:25:45;;;;;;;3.97;2.47;;;16.50;96.10;;;17.21;61.48;98514.59;4938174;28;123847;-77
2022/10/23 08:28:12;;;;;;;6.00;3.23;;;16.50;96.00;;;17.28;61.16;98511.97;4947713;28;115257;-74
2022/10/23 08:30:38;;;;;;;3.40;2.33;;;16.70;96.00;;;17.32;61.24;98510.06;4964786;28;114948;-74
2022/10/23 08:33:06;;;;;;;4.60;2.67;;;16.60;95.90;;;17.39;61.00;98515.00;4951931;28;123124;-76
2022/10/23 08:35:39;;;;;;;7.07;3.00;;;16.70;95.90;;;17.48;61.70;98503.63;4961630;28;123868;-77
2022/10/23 08:38:06;;;;;;;4.63;2.70;;;16.80;96.20;;;17.55;61.10;98507.38;4968310;28;114368;-77
2022/10/23 08:40:34;;;;;;;10.03;2.70;;;16.90;96.10;;;17.58;60.69;98512.22;4959243;28;114134;-74
2022/10/23 08:43:09;;;;;;;4.47;2.33;;;16.90;95.80;;;17.56;60.33;98500.63;4948872;28;123853;-76
2022/10/23 08:45:52;;;;;;;5.30;2.93;;;16.90;95.60;;;17.53;60.32;98497.75;4956424;28;123895;-77
2022/10/23 08:48:24;;;;;;;3.93;2.53;;;16.90;95.50;;;17.50;60.22;98493.72;4966535;28;113361;-75
2022/10/23 08:51:12;;;;;;;4.50;2.50;;;16.90;95.50;;;17.50;60.26;98488.13;4948243;28;112963;-77
2022/10/23 08:53:49;;;;;;;4.07;2.50;;;17.00;95.40;;;17.50;60.14;98490.91;4947783;28;124157;-75
2022/10/23 08:56:31;;;;;;;5.70;2.60;;;17.00;95.40;;;17.50;60.10;98493.72;4952553;28;123914;-74
2022/10/23 08:59:31;;;;;;;4.60;2.70;;;16.90;95.20;;;17.51;60.04;98488.91;4946795;28;113642;-74
2022/10/23 09:02:17;;;;;;;3.93;2.70;;;16.90;95.20;;;17.53;59.97;98486.56;4946993;28;114349;-74
2022/10/23 09:04:48;;;;;;;6.70;2.60;;;17.00;95.20;;;17.57;60.00;98493.88;4961449;28;123059;-74
2022/10/23 09:07:44;;;;;;;4.67;3.60;;;16.90;95.10;;;17.61;59.79;98483.56;4950121;28;123700;-75
2022/10/23 09:10:38;;;;;;;6.27;3.60;;;17.00;95.00;;;17.66;59.70;98491.66;4953714;28;114951;-76
2022/10/23 09:13:40;;;;;;;7.93;7.27;;;17.10;95.10;;;17.70;59.56;98490.91;4951768;28;113006;-75
2022/10/23 09:16:34;;;;;;;10.40;6.90;;;17.10;94.90;;;17.75;59.63;98493.41;4942240;28;124097;-74
2022/10/23 09:19:01;;;;;;;7.17;6.37;;;17.20;95.00;;;17.81;59.55;98497.56;4920342;28;123078;-77
2022/10/23 09:21:28;;;;;;;8.50;6.27;;;17.20;95.00;;;17.88;59.52;98489.31;4914265;28;115233;-76
2022/10/23 09:23:55;;;;;;;6.80;5.37;;;17.30;95.00;;;17.96;59.32;98493.88;4912505;28;114913;-76
2022/10/23 09:26:22;;;;;;;5.50;4.67;;;17.30;94.90;;;18.03;59.35;98487.63;4920334;28;124606;-76
2022/10/23 09:28:55;;;;;;;7.43;4.10;;;17.40;94.90;;;18.09;59.03;98486.94;4924482;28;123324;-75
2022/10/23 09:31:21;;;;;;;3.90;3.30;;;17.50;94.80;;;18.16;58.86;98486.28;4918702;28;114180;-74
2022/10/23 09:33:58;;;;;;;6.10;2.70;;;17.50;94.70;;;18.25;58.74;98483.25;4924716;28;113165;-74
2022/10/23 09:36:28;;;;;;;5.90;2.70;;;17.60;94.70;;;18.33;58.62;98479.41;4919867;28;124082;-77
2022/10/23 09:38:58;;;;;;;6.37;2.53;;;17.70;94.60;;;18.42;58.32;98476.34;4934654;28;123906;-75
2022/10/23 09:41:38;;;;;;;4.60;2.43;;;17.80;94.60;;;18.51;57.93;98466.53;4932001;28;114491;-74
2022/10/23 09:44:16;;;;;;;2.47;2.10;;;17.90;94.40;;;18.60;57.66;98465.47;4926414;28;114425;-76
2022/10/23 09:46:49;;;;;;;4.73;2.33;;;18.00;94.30;;;18.67;57.38;98465.56;4926442;28;124580;-78
2022/10/23 09:49:26;;;;;;;2.63;2.13;;;18.10;94.20;;;18.75;57.15;98461.72;4916192;28;124791;-74
2022/10/23 09:52:05;;;;;;;2.40;1.97;;;18.10;93.90;;;18.82;57.02;98461.06;4932213;28;113181;-75
2022/10/23 09:54:37;;;;;;;2.57;2.20;;;18.20;93.90;;;18.92;57.10;98458.44;4931365;28;114005;-76
2022/10/23 09:57:36;;;;;;;4.23;2.23;;;18.30;93.90;;;19.02;56.91;98454.19;4932092;28;124467;-76
2022/10/23 10:00:14;;;;;;;3.90;2.20;;;18.40;93.80;;;19.12;56.16;98447.91;4932267;28;124326;-77
2022/10/23 10:02:53;;;;;;;2.90;2.00;;;18.50;93.60;;;19.20;56.41;98446.03;4918863;28;114482;-75
2022/10/23 10:05:25;;;;;;;2.90;2.23;;;18.60;93.60;;;19.31;55.93;98454.56;4928092;28;113965;-77
2022/10/23 10:08:21;;;;;;;3.43;2.10;;;18.70;93.50;;;19.42;55.96;98455.50;4929760;28;124216;-75
2022/10/23 10:11:04;;;;;;;3.40;1.90;;;18.80;93.40;;;19.51;55.77;98463.66;4931450;28;123774;-75
2022/10/23 10:13:35;;;;;;;3.47;2.10;;;18.90;93.20;;;19.59;55.14;98468.97;4924388;28;115274;-75
2022/10/23 10:16:19;;;;;;;5.47;2.03;;;19.00;93.10;;;19.68;55.07;98456.69;4954648;28;114970;-75
2022/10/23 10:19:15;;;;;;;3.23;1.63;;;19.10;93.30;;;19.75;54.92;98454.78;4963662;28;123828;-74
2022/10/23 10:22:31;;;;;;;5.50;3.10;;;19.20;92.80;;;19.85;54.81;98450.47;4969192;28;123110;-76
2022/10/23 10:25:06;;;;;;;4.60;1.73;;;19.30;92.80;;;19.96;54.75;98456.19;4966161;28;114266;-74
2022/10/23 10:27:44;;;;;;;3.33;1.97;;;19.30;92.80;;;20.05;54.17;98451.09;4953727;28;114045;-75
2022/10/23 10:30:29;;;;;;;3.10;2.70;;;19.40;92.60;;;20.15;54.04;98442.00;4965506;28;123694;-74
2022/10/23 10:33:08;;;;;;;3.50;2.30;;;19.50;92.60;;;20.27;54.01;98432.47;4966302;28;123534;-73
2022/10/23 10:36:13;;;;;;;3.83;2.27;;;19.70;92.60;;;20.42;53.85;98427.81;4957198;28;114249;-73